Shimoji Shima Island, Japan

7:43 AM JST on October 02, 2014 (GMT +0900)
Shimojishima | Change Station
CLOSE
Current Station
Airport
Location: Shimoji Shima Island,
Elevation: 52 ft
Nearby Weather Stations

Elev 52 ft 24.83 °N, 125.14 °E | Updated -997 second ago

Partly Cloudy
Partly Cloudy
82 °F
Feels Like 88 °F
N
13
Wind Variable Wind from ENE

Today
High -- | Low -- °F
--% Chance of Precip.
Yesterday
High -- | Low -- °F
Precip. -- in
6:31 AM 6:25 PM
First Quarter, 52% visible
Pressure 29.86 in
Visibility 6.2 miles
Clouds Few 2200 ft
Heat Index 88 °F
Dew Point 73 °F
Humidity 74%
Rainfall 0.00 in
Snow Depth Not available.
UV 1 out of 12
Pollen Not available.
Air Quality Not available.
Flu Activity Not available.
METAR RORS 302300Z 06011KT 9999 FEW022 28/23 Q1011

More Conditions Fewer Conditions

Pressure 29.86 in
Visibility 6.2 miles
Clouds Few 2200 ft
Heat Index 88 °F
Dew Point 73 °F
Humidity 74%
Rainfall 0.00 in
Snow Depth Not available.
UV 1 out of 12
Pollen Not available.
Air Quality Not available.
Flu Activity Not available.
METAR RORS 302300Z 06011KT 9999 FEW022 28/23 Q1011

More Conditions Fewer Conditions

10-Day Weather Forecast

Almanac

Astronomy

Oct. 02, 2014 Rise Set
Actual Time 6:31 AM JST 6:25 PM JST
Civil Twilight 6:08 AM JST 6:48 PM JST
Nautical Twilight 5:42 AM JST 7:15 PM JST
Astronomical Twilight 5:15 AM JST 7:41 PM JST
Moon 1:28 PM JST (10/2) No Moon Set
Length of Visible Light 12h 39m
Length of Day
11h 54m
Tomorrow will be 1m 26s shorter.
First Quarter, 52% of the Moon is Illuminated
Oct 1
First Quarter
Oct 8
Full
Oct 15
Last Quarter
Oct 23
New
Oct 30
First Quarter

Yesterday's Extremes

Country Highs Country Lows

Community

WunderPhotos

Upload Photos

1,758,058 photos uploaded!

WunderBlogs® & News

By Dr. Jeff Masters
Director of Meteorology, Weather Underground
By Kari Strenfel
Meteorologist, Weather Underground
By Christopher C. Burt
Weather Historian, Weather Underground
October 1, 2014
October 1, 2014
October 1, 2014

Nearby

Snow Depth

Not available.

Earthquake Activity

City Distance Mag. Time & Date
No recent earthquake activity has been reported nearby.
Minimum magnitude displayed is 2.5.

Coastal Water Temperatures

Place Temperature
No Stations Reporting

Nearby Weather Stations